sensor_id;sensor_type;location;lat;lon;timestamp;P1;durP1;ratioP1;P2;durP2;ratioP2
74650;SDS011;63169;46.042;14.592;2023-12-20T00:01:26;18.67;;;12.02;;
74650;SDS011;63169;46.042;14.592;2023-12-20T00:03:51;21.65;;;11.60;;
74650;SDS011;63169;46.042;14.592;2023-12-20T00:06:17;27.08;;;12.60;;
74650;SDS011;63169;46.042;14.592;2023-12-20T00:08:42;23.83;;;12.38;;
74650;SDS011;63169;46.042;14.592;2023-12-20T00:11:09;19.30;;;13.02;;
74650;SDS011;63169;46.042;14.592;2023-12-20T00:13:34;23.90;;;13.27;;
74650;SDS011;63169;46.042;14.592;2023-12-20T00:16:00;26.10;;;15.27;;
74650;SDS011;63169;46.042;14.592;2023-12-20T00:18:25;23.65;;;13.65;;
74650;SDS011;63169;46.042;14.592;2023-12-20T00:20:51;25.58;;;13.35;;
74650;SDS011;63169;46.042;14.592;2023-12-20T00:23:16;19.52;;;12.63;;
74650;SDS011;63169;46.042;14.592;2023-12-20T00:25:42;27.42;;;13.38;;
74650;SDS011;63169;46.042;14.592;2023-12-20T00:28:07;28.38;;;15.13;;
74650;SDS011;63169;46.042;14.592;2023-12-20T00:30:33;24.23;;;13.98;;
74650;SDS011;63169;46.042;14.592;2023-12-20T00:32:58;23.02;;;11.98;;
74650;SDS011;63169;46.042;14.592;2023-12-20T00:35:24;21.80;;;13.70;;
74650;SDS011;63169;46.042;14.592;2023-12-20T00:37:49;27.95;;;14.95;;
74650;SDS011;63169;46.042;14.592;2023-12-20T00:40:15;24.92;;;12.50;;
74650;SDS011;63169;46.042;14.592;2023-12-20T00:42:40;21.67;;;12.20;;
74650;SDS011;63169;46.042;14.592;2023-12-20T00:45:06;21.63;;;12.27;;
74650;SDS011;63169;46.042;14.592;2023-12-20T00:47:32;18.58;;;10.93;;
74650;SDS011;63169;46.042;14.592;2023-12-20T00:49:57;21.52;;;12.55;;
74650;SDS011;63169;46.042;14.592;2023-12-20T00:52:23;21.63;;;12.90;;
74650;SDS011;63169;46.042;14.592;2023-12-20T00:54:48;23.75;;;15.13;;
74650;SDS011;63169;46.042;14.592;2023-12-20T00:57:14;16.92;;;10.75;;
74650;SDS011;63169;46.042;14.592;2023-12-20T00:59:40;20.58;;;12.60;;
74650;SDS011;63169;46.042;14.592;2023-12-20T01:02:05;23.63;;;11.98;;
74650;SDS011;63169;46.042;14.592;2023-12-20T01:04:31;21.45;;;11.57;;
74650;SDS011;63169;46.042;14.592;2023-12-20T01:06:56;20.77;;;11.27;;
74650;SDS011;63169;46.042;14.592;2023-12-20T01:09:22;19.50;;;11.85;;
74650;SDS011;63169;46.042;14.592;2023-12-20T01:11:52;22.33;;;12.43;;
74650;SDS011;63169;46.042;14.592;2023-12-20T01:14:18;27.83;;;15.13;;
74650;SDS011;63169;46.042;14.592;2023-12-20T01:16:43;21.85;;;12.90;;
74650;SDS011;63169;46.042;14.592;2023-12-20T01:19:09;18.27;;;12.52;;
74650;SDS011;63169;46.042;14.592;2023-12-20T01:21:34;24.05;;;12.00;;
74650;SDS011;63169;46.042;14.592;2023-12-20T01:24:00;19.63;;;10.07;;
74650;SDS011;63169;46.042;14.592;2023-12-20T01:26:25;19.42;;;10.32;;
74650;SDS011;63169;46.042;14.592;2023-12-20T01:28:51;17.40;;;10.55;;
74650;SDS011;63169;46.042;14.592;2023-12-20T01:31:16;15.43;;;9.85;;
74650;SDS011;63169;46.042;14.592;2023-12-20T01:33:42;18.52;;;11.70;;
74650;SDS011;63169;46.042;14.592;2023-12-20T01:36:07;17.52;;;10.52;;
74650;SDS011;63169;46.042;14.592;2023-12-20T01:38:33;20.20;;;12.57;;
74650;SDS011;63169;46.042;14.592;2023-12-20T01:40:59;19.15;;;10.45;;
74650;SDS011;63169;46.042;14.592;2023-12-20T01:43:25;20.83;;;10.38;;
74650;SDS011;63169;46.042;14.592;2023-12-20T01:45:50;19.25;;;10.38;;
74650;SDS011;63169;46.042;14.592;2023-12-20T01:48:17;15.50;;;9.93;;
74650;SDS011;63169;46.042;14.592;2023-12-20T01:50:43;20.58;;;10.55;;
74650;SDS011;63169;46.042;14.592;2023-12-20T01:53:08;23.92;;;9.88;;
74650;SDS011;63169;46.042;14.592;2023-12-20T01:55:36;18.52;;;8.90;;
74650;SDS011;63169;46.042;14.592;2023-12-20T01:58:05;19.95;;;8.02;;
74650;SDS011;63169;46.042;14.592;2023-12-20T02:00:31;19.95;;;10.70;;
74650;SDS011;63169;46.042;14.592;2023-12-20T02:02:56;24.75;;;12.27;;
74650;SDS011;63169;46.042;14.592;2023-12-20T02:05:26;18.50;;;10.50;;
74650;SDS011;63169;46.042;14.592;2023-12-20T02:07:52;18.13;;;11.88;;
74650;SDS011;63169;46.042;14.592;2023-12-20T02:10:18;18.17;;;10.65;;
74650;SDS011;63169;46.042;14.592;2023-12-20T02:12:44;18.27;;;11.52;;
74650;SDS011;63169;46.042;14.592;2023-12-20T02:15:09;18.65;;;10.85;;
74650;SDS011;63169;46.042;14.592;2023-12-20T02:17:35;18.63;;;12.55;;
74650;SDS011;63169;46.042;14.592;2023-12-20T02:20:01;19.42;;;11.38;;
74650;SDS011;63169;46.042;14.592;2023-12-20T02:22:27;18.73;;;12.25;;
74650;SDS011;63169;46.042;14.592;2023-12-20T02:24:53;22.00;;;11.90;;
74650;SDS011;63169;46.042;14.592;2023-12-20T02:27:18;19.42;;;11.68;;
74650;SDS011;63169;46.042;14.592;2023-12-20T02:29:44;17.13;;;10.00;;
74650;SDS011;63169;46.042;14.592;2023-12-20T02:32:12;17.80;;;10.35;;
74650;SDS011;63169;46.042;14.592;2023-12-20T02:34:37;15.32;;;9.70;;
74650;SDS011;63169;46.042;14.592;2023-12-20T02:37:03;15.02;;;10.73;;
74650;SDS011;63169;46.042;14.592;2023-12-20T02:39:28;16.58;;;12.25;;
74650;SDS011;63169;46.042;14.592;2023-12-20T02:41:55;16.05;;;8.55;;
74650;SDS011;63169;46.042;14.592;2023-12-20T02:44:20;17.88;;;10.57;;
74650;SDS011;63169;46.042;14.592;2023-12-20T02:46:46;22.27;;;10.48;;
74650;SDS011;63169;46.042;14.592;2023-12-20T02:49:11;22.73;;;10.80;;
74650;SDS011;63169;46.042;14.592;2023-12-20T02:51:37;18.60;;;9.95;;
74650;SDS011;63169;46.042;14.592;2023-12-20T02:54:05;15.73;;;9.75;;
74650;SDS011;63169;46.042;14.592;2023-12-20T02:56:31;24.60;;;13.95;;
74650;SDS011;63169;46.042;14.592;2023-12-20T02:58:57;20.95;;;12.63;;
74650;SDS011;63169;46.042;14.592;2023-12-20T03:01:23;18.65;;;10.63;;
74650;SDS011;63169;46.042;14.592;2023-12-20T03:03:48;19.75;;;12.65;;
74650;SDS011;63169;46.042;14.592;2023-12-20T03:06:17;17.77;;;11.32;;
74650;SDS011;63169;46.042;14.592;2023-12-20T03:08:43;21.17;;;12.13;;
74650;SDS011;63169;46.042;14.592;2023-12-20T03:11:09;19.80;;;11.55;;
74650;SDS011;63169;46.042;14.592;2023-12-20T03:13:34;17.85;;;10.82;;
74650;SDS011;63169;46.042;14.592;2023-12-20T03:16:00;19.60;;;10.52;;
74650;SDS011;63169;46.042;14.592;2023-12-20T03:18:25;21.13;;;11.10;;
74650;SDS011;63169;46.042;14.592;2023-12-20T03:20:53;13.77;;;10.07;;
74650;SDS011;63169;46.042;14.592;2023-12-20T03:23:18;21.45;;;11.20;;
74650;SDS011;63169;46.042;14.592;2023-12-20T03:25:44;19.70;;;11.70;;
74650;SDS011;63169;46.042;14.592;2023-12-20T03:28:09;23.02;;;10.32;;
74650;SDS011;63169;46.042;14.592;2023-12-20T03:30:35;17.95;;;9.18;;
74650;SDS011;63169;46.042;14.592;2023-12-20T03:33:00;22.88;;;11.13;;
74650;SDS011;63169;46.042;14.592;2023-12-20T03:35:26;18.40;;;9.80;;
74650;SDS011;63169;46.042;14.592;2023-12-20T03:37:51;15.30;;;9.52;;
74650;SDS011;63169;46.042;14.592;2023-12-20T03:40:17;19.20;;;11.02;;
74650;SDS011;63169;46.042;14.592;2023-12-20T03:42:42;19.02;;;8.82;;
74650;SDS011;63169;46.042;14.592;2023-12-20T03:45:08;17.63;;;9.45;;
74650;SDS011;63169;46.042;14.592;2023-12-20T03:47:34;16.40;;;11.40;;
74650;SDS011;63169;46.042;14.592;2023-12-20T03:49:59;23.65;;;13.57;;
74650;SDS011;63169;46.042;14.592;2023-12-20T03:52:25;19.40;;;9.60;;
74650;SDS011;63169;46.042;14.592;2023-12-20T03:54:50;18.77;;;11.73;;
74650;SDS011;63169;46.042;14.592;2023-12-20T03:57:16;22.85;;;13.30;;
74650;SDS011;63169;46.042;14.592;2023-12-20T03:59:41;20.30;;;11.15;;
74650;SDS011;63169;46.042;14.592;2023-12-20T04:02:06;24.25;;;11.95;;
74650;SDS011;63169;46.042;14.592;2023-12-20T04:04:32;22.05;;;11.75;;
74650;SDS011;63169;46.042;14.592;2023-12-20T04:06:57;22.02;;;11.18;;
74650;SDS011;63169;46.042;14.592;2023-12-20T04:09:23;16.48;;;10.23;;
74650;SDS011;63169;46.042;14.592;2023-12-20T04:11:48;19.20;;;10.75;;
74650;SDS011;63169;46.042;14.592;2023-12-20T04:14:14;20.85;;;11.73;;
74650;SDS011;63169;46.042;14.592;2023-12-20T04:16:39;19.42;;;10.48;;
74650;SDS011;63169;46.042;14.592;2023-12-20T04:19:05;19.23;;;9.82;;
74650;SDS011;63169;46.042;14.592;2023-12-20T04:21:30;23.70;;;12.88;;
74650;SDS011;63169;46.042;14.592;2023-12-20T04:23:56;15.00;;;9.80;;
74650;SDS011;63169;46.042;14.592;2023-12-20T04:26:21;20.23;;;10.63;;
74650;SDS011;63169;46.042;14.592;2023-12-20T04:28:47;15.98;;;10.73;;
74650;SDS011;63169;46.042;14.592;2023-12-20T04:31:12;18.52;;;10.57;;
74650;SDS011;63169;46.042;14.592;2023-12-20T04:33:38;25.55;;;12.63;;
74650;SDS011;63169;46.042;14.592;2023-12-20T04:36:04;23.13;;;11.20;;
74650;SDS011;63169;46.042;14.592;2023-12-20T04:38:29;21.25;;;9.88;;
74650;SDS011;63169;46.042;14.592;2023-12-20T04:40:55;21.02;;;12.43;;
74650;SDS011;63169;46.042;14.592;2023-12-20T04:43:20;21.67;;;11.88;;
74650;SDS011;63169;46.042;14.592;2023-12-20T04:45:46;20.40;;;11.82;;
74650;SDS011;63169;46.042;14.592;2023-12-20T04:48:11;21.25;;;9.82;;
74650;SDS011;63169;46.042;14.592;2023-12-20T04:50:37;23.00;;;12.35;;
74650;SDS011;63169;46.042;14.592;2023-12-20T04:53:03;23.30;;;11.57;;
74650;SDS011;63169;46.042;14.592;2023-12-20T04:55:28;14.73;;;9.73;;
74650;SDS011;63169;46.042;14.592;2023-12-20T04:57:54;16.92;;;11.60;;
74650;SDS011;63169;46.042;14.592;2023-12-20T05:00:20;21.52;;;12.82;;
74650;SDS011;63169;46.042;14.592;2023-12-20T05:02:45;24.75;;;10.82;;
74650;SDS011;63169;46.042;14.592;2023-12-20T05:05:11;21.48;;;12.45;;
74650;SDS011;63169;46.042;14.592;2023-12-20T05:07:36;19.88;;;10.00;;
74650;SDS011;63169;46.042;14.592;2023-12-20T05:10:02;16.70;;;8.13;;
74650;SDS011;63169;46.042;14.592;2023-12-20T05:12:29;22.27;;;12.40;;
74650;SDS011;63169;46.042;14.592;2023-12-20T05:14:55;19.20;;;10.43;;
74650;SDS011;63169;46.042;14.592;2023-12-20T05:17:21;19.75;;;9.27;;
74650;SDS011;63169;46.042;14.592;2023-12-20T05:19:46;16.83;;;9.88;;
74650;SDS011;63169;46.042;14.592;2023-12-20T05:22:12;21.42;;;8.90;;
74650;SDS011;63169;46.042;14.592;2023-12-20T05:24:37;20.02;;;10.73;;
74650;SDS011;63169;46.042;14.592;2023-12-20T05:27:03;18.95;;;10.13;;
74650;SDS011;63169;46.042;14.592;2023-12-20T05:29:28;23.67;;;11.60;;
74650;SDS011;63169;46.042;14.592;2023-12-20T05:31:54;19.85;;;11.15;;
74650;SDS011;63169;46.042;14.592;2023-12-20T05:34:19;26.95;;;11.88;;
74650;SDS011;63169;46.042;14.592;2023-12-20T05:36:45;18.75;;;9.95;;
74650;SDS011;63169;46.042;14.592;2023-12-20T05:39:11;23.30;;;11.88;;
74650;SDS011;63169;46.042;14.592;2023-12-20T05:41:36;19.75;;;9.05;;
74650;SDS011;63169;46.042;14.592;2023-12-20T05:44:02;19.60;;;10.40;;
74650;SDS011;63169;46.042;14.592;2023-12-20T05:46:27;21.60;;;10.63;;
74650;SDS011;63169;46.042;14.592;2023-12-20T05:48:53;31.70;;;12.95;;
74650;SDS011;63169;46.042;14.592;2023-12-20T05:51:18;33.42;;;18.27;;
74650;SDS011;63169;46.042;14.592;2023-12-20T05:53:44;32.47;;;13.73;;
74650;SDS011;63169;46.042;14.592;2023-12-20T05:56:09;25.42;;;12.45;;
74650;SDS011;63169;46.042;14.592;2023-12-20T05:58:35;26.60;;;16.70;;
74650;SDS011;63169;46.042;14.592;2023-12-20T06:01:03;22.17;;;11.02;;
74650;SDS011;63169;46.042;14.592;2023-12-20T06:03:29;16.92;;;10.00;;
74650;SDS011;63169;46.042;14.592;2023-12-20T06:05:55;14.80;;;8.98;;
74650;SDS011;63169;46.042;14.592;2023-12-20T06:08:20;22.00;;;9.55;;
74650;SDS011;63169;46.042;14.592;2023-12-20T06:10:46;18.33;;;9.07;;
74650;SDS011;63169;46.042;14.592;2023-12-20T06:13:11;14.23;;;7.72;;
74650;SDS011;63169;46.042;14.592;2023-12-20T06:15:38;20.40;;;11.02;;
74650;SDS011;63169;46.042;14.592;2023-12-20T06:18:05;22.08;;;10.57;;
74650;SDS011;63169;46.042;14.592;2023-12-20T06:20:31;19.65;;;11.73;;
74650;SDS011;63169;46.042;14.592;2023-12-20T06:22:57;15.45;;;8.60;;
74650;SDS011;63169;46.042;14.592;2023-12-20T06:25:22;16.20;;;9.73;;
74650;SDS011;63169;46.042;14.592;2023-12-20T06:27:48;20.10;;;9.23;;
74650;SDS011;63169;46.042;14.592;2023-12-20T06:30:15;15.02;;;10.63;;
74650;SDS011;63169;46.042;14.592;2023-12-20T06:32:41;16.40;;;8.45;;
74650;SDS011;63169;46.042;14.592;2023-12-20T06:35:08;19.73;;;10.55;;
74650;SDS011;63169;46.042;14.592;2023-12-20T06:37:34;18.60;;;9.90;;
74650;SDS011;63169;46.042;14.592;2023-12-20T06:40:00;16.65;;;10.88;;
74650;SDS011;63169;46.042;14.592;2023-12-20T06:42:25;13.07;;;8.43;;
74650;SDS011;63169;46.042;14.592;2023-12-20T06:44:51;16.85;;;9.43;;
74650;SDS011;63169;46.042;14.592;2023-12-20T06:47:16;18.15;;;10.02;;
74650;SDS011;63169;46.042;14.592;2023-12-20T06:49:41;15.27;;;9.20;;
74650;SDS011;63169;46.042;14.592;2023-12-20T06:52:07;20.42;;;12.98;;
74650;SDS011;63169;46.042;14.592;2023-12-20T06:54:32;17.90;;;11.48;;
74650;SDS011;63169;46.042;14.592;2023-12-20T06:56:59;19.77;;;10.82;;
74650;SDS011;63169;46.042;14.592;2023-12-20T06:59:25;14.60;;;9.73;;
74650;SDS011;63169;46.042;14.592;2023-12-20T07:01:51;21.95;;;12.38;;
74650;SDS011;63169;46.042;14.592;2023-12-20T07:04:16;16.23;;;9.75;;
74650;SDS011;63169;46.042;14.592;2023-12-20T07:06:46;19.55;;;11.90;;
74650;SDS011;63169;46.042;14.592;2023-12-20T07:09:13;22.75;;;9.90;;
74650;SDS011;63169;46.042;14.592;2023-12-20T07:11:39;18.55;;;11.00;;
74650;SDS011;63169;46.042;14.592;2023-12-20T07:14:04;21.58;;;10.75;;
74650;SDS011;63169;46.042;14.592;2023-12-20T07:16:29;13.57;;;7.60;;
74650;SDS011;63169;46.042;14.592;2023-12-20T07:18:55;17.35;;;10.80;;
74650;SDS011;63169;46.042;14.592;2023-12-20T07:21:22;18.13;;;9.90;;
74650;SDS011;63169;46.042;14.592;2023-12-20T07:23:47;20.33;;;11.43;;
74650;SDS011;63169;46.042;14.592;2023-12-20T07:26:13;17.08;;;11.32;;
74650;SDS011;63169;46.042;14.592;2023-12-20T07:28:38;23.27;;;10.13;;
74650;SDS011;63169;46.042;14.592;2023-12-20T07:31:04;15.98;;;10.65;;
74650;SDS011;63169;46.042;14.592;2023-12-20T07:33:29;19.48;;;10.57;;
74650;SDS011;63169;46.042;14.592;2023-12-20T07:35:55;22.65;;;10.38;;
74650;SDS011;63169;46.042;14.592;2023-12-20T07:38:20;23.15;;;11.85;;
74650;SDS011;63169;46.042;14.592;2023-12-20T07:40:46;15.77;;;9.35;;
74650;SDS011;63169;46.042;14.592;2023-12-20T07:43:11;15.35;;;8.68;;
74650;SDS011;63169;46.042;14.592;2023-12-20T07:45:37;18.20;;;9.27;;
74650;SDS011;63169;46.042;14.592;2023-12-20T07:48:03;19.15;;;8.18;;
74650;SDS011;63169;46.042;14.592;2023-12-20T07:50:30;24.17;;;8.32;;
74650;SDS011;63169;46.042;14.592;2023-12-20T07:52:55;17.95;;;9.70;;
74650;SDS011;63169;46.042;14.592;2023-12-20T07:55:20;17.98;;;10.32;;
74650;SDS011;63169;46.042;14.592;2023-12-20T07:57:46;20.42;;;10.07;;
74650;SDS011;63169;46.042;14.592;2023-12-20T08:00:12;18.42;;;10.45;;
74650;SDS011;63169;46.042;14.592;2023-12-20T08:02:37;12.00;;;7.72;;
74650;SDS011;63169;46.042;14.592;2023-12-20T08:05:03;14.55;;;9.98;;
74650;SDS011;63169;46.042;14.592;2023-12-20T08:07:29;21.35;;;10.88;;
74650;SDS011;63169;46.042;14.592;2023-12-20T08:09:54;21.42;;;11.02;;
74650;SDS011;63169;46.042;14.592;2023-12-20T08:12:21;14.50;;;7.90;;
74650;SDS011;63169;46.042;14.592;2023-12-20T08:14:47;26.40;;;12.02;;
74650;SDS011;63169;46.042;14.592;2023-12-20T08:17:13;19.35;;;9.75;;
74650;SDS011;63169;46.042;14.592;2023-12-20T08:19:41;20.10;;;11.13;;
74650;SDS011;63169;46.042;14.592;2023-12-20T08:22:06;18.13;;;10.20;;
74650;SDS011;63169;46.042;14.592;2023-12-20T08:24:32;23.70;;;11.27;;
74650;SDS011;63169;46.042;14.592;2023-12-20T08:26:57;17.45;;;9.13;;
74650;SDS011;63169;46.042;14.592;2023-12-20T08:29:23;20.45;;;11.25;;
74650;SDS011;63169;46.042;14.592;2023-12-20T08:31:52;18.10;;;9.98;;
74650;SDS011;63169;46.042;14.592;2023-12-20T08:34:19;22.70;;;9.85;;
74650;SDS011;63169;46.042;14.592;2023-12-20T08:36:44;20.88;;;8.93;;
74650;SDS011;63169;46.042;14.592;2023-12-20T08:39:10;23.30;;;10.20;;
74650;SDS011;63169;46.042;14.592;2023-12-20T08:41:35;23.83;;;12.93;;
74650;SDS011;63169;46.042;14.592;2023-12-20T08:44:02;24.77;;;12.38;;
74650;SDS011;63169;46.042;14.592;2023-12-20T08:46:27;23.55;;;12.85;;
74650;SDS011;63169;46.042;14.592;2023-12-20T08:48:52;25.60;;;11.32;;
74650;SDS011;63169;46.042;14.592;2023-12-20T08:51:18;25.17;;;14.00;;
74650;SDS011;63169;46.042;14.592;2023-12-20T08:53:44;23.40;;;11.38;;
74650;SDS011;63169;46.042;14.592;2023-12-20T08:56:11;23.60;;;14.05;;
74650;SDS011;63169;46.042;14.592;2023-12-20T08:58:37;24.33;;;11.35;;
74650;SDS011;63169;46.042;14.592;2023-12-20T09:01:02;21.40;;;10.70;;
74650;SDS011;63169;46.042;14.592;2023-12-20T09:03:28;20.85;;;11.27;;
74650;SDS011;63169;46.042;14.592;2023-12-20T09:05:53;18.73;;;11.50;;
74650;SDS011;63169;46.042;14.592;2023-12-20T09:08:19;25.08;;;10.20;;
74650;SDS011;63169;46.042;14.592;2023-12-20T09:10:44;17.60;;;10.63;;
74650;SDS011;63169;46.042;14.592;2023-12-20T09:13:10;19.10;;;10.00;;
74650;SDS011;63169;46.042;14.592;2023-12-20T09:15:35;24.02;;;11.93;;
74650;SDS011;63169;46.042;14.592;2023-12-20T09:18:01;23.23;;;13.50;;
74650;SDS011;63169;46.042;14.592;2023-12-20T09:20:26;21.65;;;10.98;;
74650;SDS011;63169;46.042;14.592;2023-12-20T09:22:52;18.80;;;11.60;;
74650;SDS011;63169;46.042;14.592;2023-12-20T09:25:18;31.65;;;12.65;;
74650;SDS011;63169;46.042;14.592;2023-12-20T09:27:43;27.55;;;13.23;;
74650;SDS011;63169;46.042;14.592;2023-12-20T09:30:09;25.17;;;13.07;;
74650;SDS011;63169;46.042;14.592;2023-12-20T09:32:35;21.77;;;10.48;;
74650;SDS011;63169;46.042;14.592;2023-12-20T09:35:01;22.55;;;11.43;;
74650;SDS011;63169;46.042;14.592;2023-12-20T09:37:27;21.23;;;12.00;;
74650;SDS011;63169;46.042;14.592;2023-12-20T09:39:53;29.67;;;15.52;;
74650;SDS011;63169;46.042;14.592;2023-12-20T09:42:29;21.08;;;11.70;;
74650;SDS011;63169;46.042;14.592;2023-12-20T09:45:03;26.48;;;12.55;;
74650;SDS011;63169;46.042;14.592;2023-12-20T09:47:33;21.25;;;13.18;;
74650;SDS011;63169;46.042;14.592;2023-12-20T09:49:59;25.63;;;12.27;;
74650;SDS011;63169;46.042;14.592;2023-12-20T09:52:25;19.65;;;11.07;;
74650;SDS011;63169;46.042;14.592;2023-12-20T09:54:51;23.92;;;12.52;;
74650;SDS011;63169;46.042;14.592;2023-12-20T09:57:17;28.25;;;11.93;;
74650;SDS011;63169;46.042;14.592;2023-12-20T09:59:43;26.77;;;14.02;;
74650;SDS011;63169;46.042;14.592;2023-12-20T10:02:09;25.98;;;15.18;;
74650;SDS011;63169;46.042;14.592;2023-12-20T10:04:41;26.02;;;11.27;;
74650;SDS011;63169;46.042;14.592;2023-12-20T10:07:12;24.15;;;11.75;;
74650;SDS011;63169;46.042;14.592;2023-12-20T10:09:38;23.05;;;12.88;;
74650;SDS011;63169;46.042;14.592;2023-12-20T10:12:03;21.02;;;10.88;;
74650;SDS011;63169;46.042;14.592;2023-12-20T10:14:30;19.13;;;14.43;;
74650;SDS011;63169;46.042;14.592;2023-12-20T10:19:29;18.33;;;10.07;;
74650;SDS011;63169;46.042;14.592;2023-12-20T10:21:54;21.85;;;11.50;;
74650;SDS011;63169;46.042;14.592;2023-12-20T10:24:20;22.60;;;13.48;;
74650;SDS011;63169;46.042;14.592;2023-12-20T10:26:45;21.55;;;16.48;;
74650;SDS011;63169;46.042;14.592;2023-12-20T10:29:11;24.30;;;12.50;;
74650;SDS011;63169;46.042;14.592;2023-12-20T10:31:36;22.20;;;12.43;;
74650;SDS011;63169;46.042;14.592;2023-12-20T10:34:03;24.02;;;13.13;;
74650;SDS011;63169;46.042;14.592;2023-12-20T10:36:32;24.60;;;13.57;;
74650;SDS011;63169;46.042;14.592;2023-12-20T10:38:58;22.13;;;13.10;;
74650;SDS011;63169;46.042;14.592;2023-12-20T10:41:25;24.35;;;12.75;;
74650;SDS011;63169;46.042;14.592;2023-12-20T10:43:53;35.63;;;22.80;;
74650;SDS011;63169;46.042;14.592;2023-12-20T10:46:23;22.60;;;14.13;;
74650;SDS011;63169;46.042;14.592;2023-12-20T10:48:51;27.45;;;13.88;;
74650;SDS011;63169;46.042;14.592;2023-12-20T10:51:19;25.92;;;15.07;;
74650;SDS011;63169;46.042;14.592;2023-12-20T10:53:46;25.27;;;13.55;;
74650;SDS011;63169;46.042;14.592;2023-12-20T10:56:15;24.92;;;15.98;;
74650;SDS011;63169;46.042;14.592;2023-12-20T10:58:42;29.48;;;16.10;;
74650;SDS011;63169;46.042;14.592;2023-12-20T11:01:12;26.95;;;15.82;;
74650;SDS011;63169;46.042;14.592;2023-12-20T11:03:39;26.65;;;17.70;;
74650;SDS011;63169;46.042;14.592;2023-12-20T11:16:25;25.23;;;15.80;;
74650;SDS011;63169;46.042;14.592;2023-12-20T11:18:51;30.48;;;18.00;;
74650;SDS011;63169;46.042;14.592;2023-12-20T11:21:16;26.20;;;14.77;;
74650;SDS011;63169;46.042;14.592;2023-12-20T11:23:42;20.50;;;13.93;;
74650;SDS011;63169;46.042;14.592;2023-12-20T11:26:08;25.88;;;13.65;;
74650;SDS011;63169;46.042;14.592;2023-12-20T11:28:33;23.02;;;14.27;;
74650;SDS011;63169;46.042;14.592;2023-12-20T11:31:00;23.67;;;14.65;;
74650;SDS011;63169;46.042;14.592;2023-12-20T11:33:29;27.65;;;15.50;;
74650;SDS011;63169;46.042;14.592;2023-12-20T11:36:01;24.95;;;13.00;;
74650;SDS011;63169;46.042;14.592;2023-12-20T11:38:32;24.55;;;15.43;;
74650;SDS011;63169;46.042;14.592;2023-12-20T11:41:01;23.20;;;15.65;;
74650;SDS011;63169;46.042;14.592;2023-12-20T11:46:04;24.27;;;13.63;;
74650;SDS011;63169;46.042;14.592;2023-12-20T11:48:37;28.50;;;16.27;;
74650;SDS011;63169;46.042;14.592;2023-12-20T11:51:13;28.08;;;15.27;;
74650;SDS011;63169;46.042;14.592;2023-12-20T11:53:39;27.17;;;14.95;;
74650;SDS011;63169;46.042;14.592;2023-12-20T11:56:06;27.73;;;14.23;;
74650;SDS011;63169;46.042;14.592;2023-12-20T11:58:32;26.58;;;14.50;;
74650;SDS011;63169;46.042;14.592;2023-12-20T12:00:57;27.58;;;16.45;;
74650;SDS011;63169;46.042;14.592;2023-12-20T12:03:23;30.48;;;16.60;;
74650;SDS011;63169;46.042;14.592;2023-12-20T12:05:50;31.17;;;17.25;;
74650;SDS011;63169;46.042;14.592;2023-12-20T12:08:16;33.92;;;19.63;;
74650;SDS011;63169;46.042;14.592;2023-12-20T12:10:43;29.00;;;16.63;;
74650;SDS011;63169;46.042;14.592;2023-12-20T12:13:09;31.67;;;16.40;;
74650;SDS011;63169;46.042;14.592;2023-12-20T12:15:35;28.02;;;18.75;;
74650;SDS011;63169;46.042;14.592;2023-12-20T12:18:01;27.98;;;16.98;;
74650;SDS011;63169;46.042;14.592;2023-12-20T12:20:26;28.45;;;17.58;;
74650;SDS011;63169;46.042;14.592;2023-12-20T12:23:02;29.33;;;16.77;;
74650;SDS011;63169;46.042;14.592;2023-12-20T12:25:29;32.60;;;19.48;;
74650;SDS011;63169;46.042;14.592;2023-12-20T12:27:56;26.15;;;15.80;;
74650;SDS011;63169;46.042;14.592;2023-12-20T12:32:48;29.30;;;17.45;;
74650;SDS011;63169;46.042;14.592;2023-12-20T12:35:14;25.70;;;15.07;;
74650;SDS011;63169;46.042;14.592;2023-12-20T12:37:40;30.75;;;16.52;;
74650;SDS011;63169;46.042;14.592;2023-12-20T12:40:13;30.88;;;17.10;;
74650;SDS011;63169;46.042;14.592;2023-12-20T12:42:40;29.13;;;17.40;;
74650;SDS011;63169;46.042;14.592;2023-12-20T12:45:06;45.78;;;26.08;;
74650;SDS011;63169;46.042;14.592;2023-12-20T12:47:32;43.42;;;21.73;;
74650;SDS011;63169;46.042;14.592;2023-12-20T12:49:58;32.40;;;19.75;;
74650;SDS011;63169;46.042;14.592;2023-12-20T12:52:23;30.98;;;17.17;;
74650;SDS011;63169;46.042;14.592;2023-12-20T12:54:49;36.58;;;16.48;;
74650;SDS011;63169;46.042;14.592;2023-12-20T12:57:15;32.20;;;17.75;;
74650;SDS011;63169;46.042;14.592;2023-12-20T12:59:41;29.67;;;20.30;;
74650;SDS011;63169;46.042;14.592;2023-12-20T13:02:11;29.73;;;16.90;;
74650;SDS011;63169;46.042;14.592;2023-12-20T13:04:38;30.90;;;20.08;;
74650;SDS011;63169;46.042;14.592;2023-12-20T13:07:04;30.95;;;15.80;;
74650;SDS011;63169;46.042;14.592;2023-12-20T13:09:30;34.67;;;20.08;;
74650;SDS011;63169;46.042;14.592;2023-12-20T13:11:56;33.25;;;20.85;;
74650;SDS011;63169;46.042;14.592;2023-12-20T13:14:22;28.80;;;20.88;;
74650;SDS011;63169;46.042;14.592;2023-12-20T13:16:47;36.78;;;20.73;;
74650;SDS011;63169;46.042;14.592;2023-12-20T13:19:13;45.28;;;23.23;;
74650;SDS011;63169;46.042;14.592;2023-12-20T13:21:38;47.55;;;23.50;;
74650;SDS011;63169;46.042;14.592;2023-12-20T13:24:04;41.50;;;21.75;;
74650;SDS011;63169;46.042;14.592;2023-12-20T13:26:30;35.92;;;19.17;;
74650;SDS011;63169;46.042;14.592;2023-12-20T13:28:55;33.55;;;19.42;;
74650;SDS011;63169;46.042;14.592;2023-12-20T13:31:21;39.78;;;21.40;;
74650;SDS011;63169;46.042;14.592;2023-12-20T13:33:47;45.05;;;20.38;;
74650;SDS011;63169;46.042;14.592;2023-12-20T13:36:12;36.97;;;20.42;;
74650;SDS011;63169;46.042;14.592;2023-12-20T13:38:38;32.40;;;19.38;;
74650;SDS011;63169;46.042;14.592;2023-12-20T13:41:04;34.20;;;19.02;;
74650;SDS011;63169;46.042;14.592;2023-12-20T13:43:30;27.58;;;17.30;;
74650;SDS011;63169;46.042;14.592;2023-12-20T13:45:57;34.00;;;18.52;;
74650;SDS011;63169;46.042;14.592;2023-12-20T13:48:23;38.00;;;18.88;;
74650;SDS011;63169;46.042;14.592;2023-12-20T13:50:49;32.20;;;17.40;;
74650;SDS011;63169;46.042;14.592;2023-12-20T13:53:14;31.55;;;17.88;;
74650;SDS011;63169;46.042;14.592;2023-12-20T13:55:40;30.80;;;18.98;;
74650;SDS011;63169;46.042;14.592;2023-12-20T13:58:05;32.28;;;17.08;;
74650;SDS011;63169;46.042;14.592;2023-12-20T14:00:30;33.17;;;18.98;;
74650;SDS011;63169;46.042;14.592;2023-12-20T14:02:56;32.45;;;18.27;;
74650;SDS011;63169;46.042;14.592;2023-12-20T14:05:21;31.77;;;19.10;;
74650;SDS011;63169;46.042;14.592;2023-12-20T14:07:48;37.83;;;19.45;;
74650;SDS011;63169;46.042;14.592;2023-12-20T14:10:14;35.88;;;20.58;;
74650;SDS011;63169;46.042;14.592;2023-12-20T14:12:39;37.92;;;22.27;;
74650;SDS011;63169;46.042;14.592;2023-12-20T14:15:05;45.53;;;23.58;;
74650;SDS011;63169;46.042;14.592;2023-12-20T14:17:39;38.00;;;21.15;;
74650;SDS011;63169;46.042;14.592;2023-12-20T14:20:05;34.00;;;19.70;;
74650;SDS011;63169;46.042;14.592;2023-12-20T14:22:32;31.95;;;20.42;;